createdAt,value
2023-02-05T00:02:33.971Z,100364.57
2023-02-05T00:07:37.545Z,100373.40
2023-02-05T00:12:40.814Z,100374.76
2023-02-05T00:17:44.100Z,100378.27
2023-02-05T00:29:07.015Z,100396.08
2023-02-05T00:34:10.266Z,100401.84
2023-02-05T00:39:14.469Z,100403.38
2023-02-05T00:44:17.792Z,100408.38
2023-02-05T00:49:21.041Z,100410.07
2023-02-05T00:54:24.375Z,100409.13
2023-02-05T00:59:28.694Z,100409.55
2023-02-05T01:04:32.087Z,100413.14
2023-02-05T01:09:35.475Z,100415.21
2023-02-05T01:14:38.978Z,100414.20
2023-02-05T01:19:42.346Z,100414.34
2023-02-05T01:24:45.680Z,100412.76
2023-02-05T01:29:48.938Z,100409.84
2023-02-05T01:34:52.337Z,100406.75
2023-02-05T01:39:56.718Z,100405.42
2023-02-05T01:45:22.164Z,100402.17
2023-02-05T01:50:46.197Z,100405.67
2023-02-05T01:55:56.494Z,100412.02
2023-02-05T02:01:00.022Z,100406.02
2023-02-05T02:06:05.099Z,100404.17
2023-02-05T02:11:11.024Z,100400.45
2023-02-05T02:16:15.497Z,100401.66
2023-02-05T02:22:01.133Z,100408.51
2023-02-05T02:27:10.525Z,100403.42
2023-02-05T02:32:57.628Z,100407.40
2023-02-05T02:38:23.014Z,100419.09
2023-02-05T02:43:48.608Z,100422.09
2023-02-05T02:48:56.164Z,100425.55
2023-02-05T02:54:05.946Z,100430.80
2023-02-05T02:59:14.137Z,100431.79
2023-02-05T03:04:33.136Z,100439.73
2023-02-05T03:09:44.786Z,100437.05
2023-02-05T03:14:48.725Z,100444.48
2023-02-05T03:20:05.320Z,100441.70
2023-02-05T03:25:09.248Z,100442.87
2023-02-05T03:30:12.922Z,100446.91
2023-02-05T03:35:41.217Z,100451.14
2023-02-05T03:40:44.740Z,100451.73
2023-02-05T03:45:57.503Z,100445.86
2023-02-05T03:51:03.939Z,100450.58
2023-02-05T03:56:12.667Z,100447.41
2023-02-05T04:01:17.385Z,100445.09
2023-02-05T04:06:21.325Z,100451.24
2023-02-05T04:11:24.961Z,100447.86
2023-02-05T04:16:29.846Z,100446.16
2023-02-05T04:21:34.144Z,100448.50
2023-02-05T04:26:37.702Z,100452.47
2023-02-05T04:31:42.531Z,100459.10
2023-02-05T04:36:47.638Z,100461.89
2023-02-05T04:41:51.517Z,100462.70
2023-02-05T04:46:54.925Z,100466.84
2023-02-05T04:51:58.074Z,100463.52
2023-02-05T04:57:01.215Z,100469.36
2023-02-05T05:02:04.485Z,100469.51
2023-02-05T05:07:08.062Z,100472.80
2023-02-05T05:12:11.240Z,100469.42
2023-02-05T05:17:15.961Z,100479.27
2023-02-05T05:22:19.186Z,100480.83
2023-02-05T05:27:24.528Z,100483.50
2023-02-05T05:32:27.739Z,100483.88
2023-02-05T05:37:30.969Z,100491.52
2023-02-05T05:42:52.632Z,100499.57
2023-02-05T05:47:55.856Z,100510.85
2023-02-05T05:52:59.095Z,100524.88
2023-02-05T06:04:15.596Z,100539.48
2023-02-05T06:09:20.503Z,100551.20
2023-02-05T06:14:24.288Z,100556.86
2023-02-05T06:19:27.615Z,100567.83
2023-02-05T06:24:31.079Z,100570.98
2023-02-05T06:29:34.432Z,100586.98
2023-02-05T06:34:37.552Z,100586.27
2023-02-05T06:39:41.394Z,100590.08
2023-02-05T06:44:44.617Z,100588.17
2023-02-05T06:49:47.904Z,100593.41
2023-02-05T06:54:51.218Z,100606.70
2023-02-05T06:59:54.623Z,100604.25
2023-02-05T07:04:58.106Z,100605.84
2023-02-05T07:10:01.738Z,100608.55
2023-02-05T07:15:05.287Z,100607.33
2023-02-05T07:20:09.039Z,100608.39
2023-02-05T07:25:12.291Z,100617.77
2023-02-05T07:30:15.817Z,100627.42
2023-02-05T07:35:19.306Z,100633.79
2023-02-05T07:40:22.585Z,100648.74
2023-02-05T07:45:25.878Z,100658.25
2023-02-05T07:50:29.080Z,100652.79
2023-02-05T07:55:33.237Z,100664.80
2023-02-05T08:00:36.989Z,100671.23
2023-02-05T08:05:40.638Z,100670.95
2023-02-05T08:10:43.922Z,100680.44
2023-02-05T08:15:47.124Z,100680.65
2023-02-05T08:20:56.468Z,100669.62
2023-02-05T08:26:00.244Z,100671.39
2023-02-05T08:31:13.200Z,100671.23
2023-02-05T08:36:16.915Z,100671.58
2023-02-05T08:41:20.085Z,100673.23
2023-02-05T08:46:33.864Z,100676.16
2023-02-05T08:51:48.276Z,100674.71
2023-02-05T08:56:52.440Z,100669.35
2023-02-05T09:01:55.674Z,100673.23
2023-02-05T09:06:58.855Z,100678.41
2023-02-05T09:12:03.122Z,100685.45
2023-02-05T09:17:09.472Z,100693.52
2023-02-05T09:22:14.342Z,100691.84
2023-02-05T09:27:17.953Z,100699.73
2023-02-05T09:32:21.106Z,100697.83
2023-02-05T09:37:24.476Z,100693.48
2023-02-05T09:42:59.986Z,100692.85
2023-02-05T09:48:37.440Z,100695.28
2023-02-05T09:53:44.593Z,100695.91
2023-02-05T09:58:50.454Z,100696.50
2023-02-05T10:04:01.244Z,100701.32
2023-02-05T10:09:25.813Z,100705.35
2023-02-05T10:14:54.978Z,100712.08
2023-02-05T10:20:19.515Z,100713.45
2023-02-05T10:25:25.683Z,100709.13
2023-02-05T10:30:52.693Z,100706.58
2023-02-05T10:36:03.323Z,100703.36
2023-02-05T10:41:25.768Z,100705.27
2023-02-05T10:46:33.513Z,100708.48
2023-02-05T10:51:41.773Z,100705.15
2023-02-05T10:56:45.597Z,100702.14
2023-02-05T11:01:49.429Z,100707.31
2023-02-05T11:06:53.461Z,100701.76
2023-02-05T11:12:05.672Z,100698.91
2023-02-05T11:17:15.275Z,100688.44
2023-02-05T11:22:36.415Z,100692.17
2023-02-05T11:27:39.647Z,100686.85
2023-02-05T11:32:42.910Z,100693.77
2023-02-05T11:37:49.342Z,100689.52
2023-02-05T11:43:08.292Z,100683.37
2023-02-05T11:48:37.469Z,100691.89
2023-02-05T11:53:52.293Z,100684.38
2023-02-05T11:59:01.288Z,100678.55
2023-02-05T12:04:20.191Z,100672.23
2023-02-05T12:09:27.644Z,100670.73
2023-02-05T12:14:41.745Z,100667.83
2023-02-05T12:20:04.849Z,100666.73
2023-02-05T12:25:14.342Z,100670.05
2023-02-05T12:30:35.912Z,100674.34
2023-02-05T12:35:59.217Z,100673.27
2023-02-05T12:41:05.497Z,100668.55
2023-02-05T12:46:42.919Z,100668.45
2023-02-05T12:52:01.344Z,100665.55
2023-02-05T12:57:08.400Z,100665.02
2023-02-05T13:02:14.852Z,100666.69
2023-02-05T13:07:30.792Z,100661.77
2023-02-05T13:12:41.826Z,100660.22
2023-02-05T13:18:19.134Z,100656.52
2023-02-05T13:23:41.500Z,100662.01
2023-02-05T13:28:47.775Z,100660.61
2023-02-05T13:33:53.472Z,100665.19
2023-02-05T13:39:34.801Z,100657.85
2023-02-05T13:44:38.011Z,100663.16
2023-02-05T13:49:45.010Z,100668.36
2023-02-05T13:55:16.631Z,100669.17
2023-02-05T14:00:20.638Z,100667.91
2023-02-05T14:05:30.120Z,100669.70
2023-02-05T14:14:17.248Z,100668.08
2023-02-05T14:19:43.707Z,100672.98
2023-02-05T14:24:49.458Z,100677.22
2023-02-05T14:29:53.483Z,100673.46
2023-02-05T14:35:02.845Z,100675.26
2023-02-05T14:40:25.003Z,100676.77
2023-02-05T14:45:30.524Z,100673.11
2023-02-05T14:50:33.796Z,100678.25
2023-02-05T14:55:42.601Z,100671.31
2023-02-05T15:00:45.786Z,100671.80
2023-02-05T15:05:55.631Z,100677.54
2023-02-05T15:11:17.916Z,100676.30
2023-02-05T15:16:21.800Z,100681.17
2023-02-05T15:21:29.311Z,100686.61
2023-02-05T15:26:40.263Z,100694.81
2023-02-05T15:31:56.102Z,100694.77
2023-02-05T15:37:06.626Z,100698.39
2023-02-05T15:42:11.281Z,100695.70
2023-02-05T15:47:19.937Z,100695.55
2023-02-05T15:52:32.020Z,100702.33
2023-02-05T15:57:35.482Z,100706.54
2023-02-05T16:02:40.133Z,100707.89
2023-02-05T16:07:45.021Z,100704.64
2023-02-05T16:13:07.406Z,100704.86
2023-02-05T16:18:38.798Z,100706.48
2023-02-05T16:23:46.104Z,100706.43
2023-02-05T16:28:54.781Z,100706.00
2023-02-05T16:33:57.913Z,100710.62
2023-02-05T16:39:04.102Z,100712.20
2023-02-05T16:44:26.764Z,100714.10
2023-02-05T16:49:31.445Z,100719.09
2023-02-05T16:54:38.697Z,100718.90
2023-02-05T16:59:58.344Z,100724.85
2023-02-05T17:05:04.785Z,100730.55
2023-02-05T17:10:20.461Z,100736.52
2023-02-05T17:15:30.916Z,100737.48
2023-02-05T17:20:34.578Z,100743.66
2023-02-05T17:25:42.674Z,100744.02
2023-02-05T17:30:47.732Z,100745.30
2023-02-05T17:35:51.379Z,100754.20
2023-02-05T17:41:14.456Z,100755.02
2023-02-05T17:46:17.752Z,100747.92
2023-02-05T17:51:22.792Z,100750.64
2023-02-05T17:56:26.608Z,100756.79
2023-02-05T18:01:29.880Z,100761.23
2023-02-05T18:06:34.476Z,100760.48
2023-02-05T18:11:37.706Z,100769.29
2023-02-05T18:16:41.127Z,100767.74
2023-02-05T18:21:47.165Z,100765.40
2023-02-05T18:26:52.853Z,100772.16
2023-02-05T18:31:56.454Z,100773.00
2023-02-05T18:37:00.061Z,100774.39
2023-02-05T18:42:03.253Z,100774.61
2023-02-05T18:47:07.539Z,100782.11
2023-02-05T18:52:14.815Z,100786.10
2023-02-05T18:57:18.641Z,100790.38
2023-02-05T19:02:22.156Z,100795.39
2023-02-05T19:07:26.305Z,100797.39
2023-02-05T19:12:31.135Z,100805.83
2023-02-05T19:17:34.571Z,100802.21
2023-02-05T19:22:38.062Z,100802.89
2023-02-05T19:27:41.371Z,100806.14
2023-02-05T19:32:44.716Z,100809.02
2023-02-05T19:37:48.779Z,100811.64
2023-02-05T19:42:54.003Z,100812.71
2023-02-05T19:47:58.311Z,100815.89
2023-02-05T19:53:01.739Z,100808.27
2023-02-05T19:58:05.049Z,100805.30
2023-02-05T20:03:09.305Z,100810.02
2023-02-05T20:08:12.520Z,100809.69
2023-02-05T20:13:16.624Z,100808.06
2023-02-05T20:18:19.943Z,100807.42
2023-02-05T20:23:26.733Z,100809.14
2023-02-05T20:28:34.035Z,100812.16
2023-02-05T20:33:37.561Z,100816.20
2023-02-05T20:38:40.780Z,100819.16
2023-02-05T20:43:44.587Z,100820.87
2023-02-05T20:48:48.816Z,100827.10
2023-02-05T20:53:57.302Z,100835.27
2023-02-05T20:59:02.742Z,100843.98
2023-02-05T21:04:07.799Z,100849.13
2023-02-05T21:09:11.001Z,100853.10
2023-02-05T21:14:14.317Z,100857.29
2023-02-05T21:19:18.536Z,100862.98
2023-02-05T21:24:22.048Z,100859.62
2023-02-05T21:29:25.254Z,100865.20
2023-02-05T21:34:29.491Z,100870.20
2023-02-05T21:39:32.763Z,100870.52
2023-02-05T21:44:35.998Z,100876.22
2023-02-05T21:49:39.176Z,100878.54
2023-02-05T21:54:42.749Z,100886.11
2023-02-05T21:59:46.060Z,100895.73
2023-02-05T22:04:49.467Z,100908.07
2023-02-05T22:09:52.682Z,100907.86
2023-02-05T22:14:56.055Z,100911.27
2023-02-05T22:19:59.623Z,100920.16
2023-02-05T22:25:04.415Z,100923.42
2023-02-05T22:30:08.800Z,100926.33
2023-02-05T22:35:12.058Z,100929.74
2023-02-05T22:40:15.182Z,100934.95
2023-02-05T22:45:18.432Z,100933.05
2023-02-05T22:50:21.635Z,100928.17
2023-02-05T22:55:25.016Z,100926.14
2023-02-05T23:00:29.702Z,100932.23
2023-02-05T23:05:34.479Z,100932.63
2023-02-05T23:10:38.380Z,100930.84
2023-02-05T23:15:41.423Z,100940.67
2023-02-05T23:20:44.635Z,100939.07
2023-02-05T23:25:50.245Z,100944.63
2023-02-05T23:30:53.677Z,100946.01
2023-02-05T23:35:57.184Z,100945.19
2023-02-05T23:41:01.117Z,100948.05
2023-02-05T23:46:06.115Z,100950.08
2023-02-05T23:51:09.448Z,100953.00
2023-02-05T23:56:12.795Z,100954.02
